sensor_id;sensor_type;location;lat;lon;timestamp;temperature;humidity
17797;DHT22;55596;53.554;9.916;2022-09-09T00:02:21;13.90;99.90
17797;DHT22;55596;53.554;9.916;2022-09-09T00:04:59;13.80;99.90
17797;DHT22;55596;53.554;9.916;2022-09-09T00:07:35;13.60;99.90
17797;DHT22;55596;53.554;9.916;2022-09-09T00:10:13;13.60;99.90
17797;DHT22;55596;53.554;9.916;2022-09-09T00:12:47;15.20;99.90
17797;DHT22;55596;53.554;9.916;2022-09-09T00:15:20;13.50;99.90
17797;DHT22;55596;53.554;9.916;2022-09-09T00:17:53;13.70;99.90
17797;DHT22;55596;53.554;9.916;2022-09-09T00:20:29;13.70;99.90
17797;DHT22;55596;53.554;9.916;2022-09-09T00:23:04;13.80;99.90
17797;DHT22;55596;53.554;9.916;2022-09-09T00:25:37;13.80;99.90
17797;DHT22;55596;53.554;9.916;2022-09-09T00:28:13;13.80;99.90
17797;DHT22;55596;53.554;9.916;2022-09-09T00:30:41;13.90;99.90
17797;DHT22;55596;53.554;9.916;2022-09-09T00:33:11;13.80;99.90
17797;DHT22;55596;53.554;9.916;2022-09-09T00:35:44;13.90;99.90
17797;DHT22;55596;53.554;9.916;2022-09-09T00:40:46;13.90;99.90
17797;DHT22;55596;53.554;9.916;2022-09-09T00:43:26;13.90;99.90
17797;DHT22;55596;53.554;9.916;2022-09-09T00:46:05;14.00;99.90
17797;DHT22;55596;53.554;9.916;2022-09-09T00:48:42;14.10;99.90
17797;DHT22;55596;53.554;9.916;2022-09-09T00:51:24;14.00;99.90
17797;DHT22;55596;53.554;9.916;2022-09-09T00:54:04;15.90;99.90
17797;DHT22;55596;53.554;9.916;2022-09-09T00:56:37;14.00;99.90
17797;DHT22;55596;53.554;9.916;2022-09-09T00:59:15;14.00;99.90
17797;DHT22;55596;53.554;9.916;2022-09-09T01:01:43;14.10;99.90
17797;DHT22;55596;53.554;9.916;2022-09-09T01:04:14;14.10;99.90
17797;DHT22;55596;53.554;9.916;2022-09-09T01:06:46;14.10;99.90
17797;DHT22;55596;53.554;9.916;2022-09-09T01:09:22;13.30;99.90
17797;DHT22;55596;53.554;9.916;2022-09-09T01:11:57;14.00;99.90
17797;DHT22;55596;53.554;9.916;2022-09-09T01:14:34;14.90;99.90
17797;DHT22;55596;53.554;9.916;2022-09-09T01:17:09;13.80;99.90
17797;DHT22;55596;53.554;9.916;2022-09-09T01:19:50;13.70;99.90
17797;DHT22;55596;53.554;9.916;2022-09-09T01:22:28;13.60;99.90
17797;DHT22;55596;53.554;9.916;2022-09-09T01:25:18;13.50;99.90
17797;DHT22;55596;53.554;9.916;2022-09-09T01:27:48;13.40;99.90
17797;DHT22;55596;53.554;9.916;2022-09-09T01:30:17;13.50;99.90
17797;DHT22;55596;53.554;9.916;2022-09-09T01:32:46;13.50;99.90
17797;DHT22;55596;53.554;9.916;2022-09-09T01:35:32;13.50;99.90
17797;DHT22;55596;53.554;9.916;2022-09-09T01:38:01;13.50;99.90
17797;DHT22;55596;53.554;9.916;2022-09-09T01:40:28;13.50;99.90
17797;DHT22;55596;53.554;9.916;2022-09-09T01:42:56;13.50;99.90
17797;DHT22;55596;53.554;9.916;2022-09-09T01:45:23;14.90;99.90
17797;DHT22;55596;53.554;9.916;2022-09-09T01:47:52;13.50;99.90
17797;DHT22;55596;53.554;9.916;2022-09-09T01:50:19;13.50;99.90
17797;DHT22;55596;53.554;9.916;2022-09-09T01:52:49;13.50;99.90
17797;DHT22;55596;53.554;9.916;2022-09-09T01:55:17;13.50;99.90
17797;DHT22;55596;53.554;9.916;2022-09-09T01:57:52;13.40;99.90
17797;DHT22;55596;53.554;9.916;2022-09-09T02:00:23;13.50;99.90
17797;DHT22;55596;53.554;9.916;2022-09-09T02:02:57;13.50;99.90
17797;DHT22;55596;53.554;9.916;2022-09-09T02:05:33;13.60;99.90
17797;DHT22;55596;53.554;9.916;2022-09-09T02:08:05;13.50;99.90
17797;DHT22;55596;53.554;9.916;2022-09-09T02:10:40;13.40;99.90
17797;DHT22;55596;53.554;9.916;2022-09-09T02:13:11;13.40;99.90
17797;DHT22;55596;53.554;9.916;2022-09-09T02:15:48;13.30;99.90
17797;DHT22;55596;53.554;9.916;2022-09-09T02:18:21;13.40;99.90
17797;DHT22;55596;53.554;9.916;2022-09-09T02:20:51;13.20;99.90
17797;DHT22;55596;53.554;9.916;2022-09-09T02:23:19;13.20;99.90
17797;DHT22;55596;53.554;9.916;2022-09-09T02:25:48;13.20;99.90
17797;DHT22;55596;53.554;9.916;2022-09-09T02:28:17;13.10;99.90
17797;DHT22;55596;53.554;9.916;2022-09-09T02:30:50;13.10;99.90
17797;DHT22;55596;53.554;9.916;2022-09-09T02:33:21;13.00;99.90
17797;DHT22;55596;53.554;9.916;2022-09-09T02:35:51;13.10;99.90
17797;DHT22;55596;53.554;9.916;2022-09-09T02:38:20;13.00;99.90
17797;DHT22;55596;53.554;9.916;2022-09-09T02:40:48;13.10;99.90
17797;DHT22;55596;53.554;9.916;2022-09-09T02:43:15;13.10;99.90
17797;DHT22;55596;53.554;9.916;2022-09-09T02:45:50;13.10;99.90
17797;DHT22;55596;53.554;9.916;2022-09-09T02:48:25;13.10;99.90
17797;DHT22;55596;53.554;9.916;2022-09-09T02:51:00;13.10;99.90
17797;DHT22;55596;53.554;9.916;2022-09-09T02:53:36;13.10;99.90
17797;DHT22;55596;53.554;9.916;2022-09-09T02:56:09;13.10;99.90
17797;DHT22;55596;53.554;9.916;2022-09-09T02:58:40;13.00;99.90
17797;DHT22;55596;53.554;9.916;2022-09-09T03:01:09;12.90;99.90
17797;DHT22;55596;53.554;9.916;2022-09-09T03:03:36;13.00;99.90
17797;DHT22;55596;53.554;9.916;2022-09-09T03:06:04;13.00;99.90
17797;DHT22;55596;53.554;9.916;2022-09-09T03:08:31;12.90;99.90
17797;DHT22;55596;53.554;9.916;2022-09-09T03:10:59;12.80;99.90
17797;DHT22;55596;53.554;9.916;2022-09-09T03:13:26;12.80;99.90
17797;DHT22;55596;53.554;9.916;2022-09-09T03:18:22;12.80;99.90
17797;DHT22;55596;53.554;9.916;2022-09-09T03:20:48;12.80;99.90
17797;DHT22;55596;53.554;9.916;2022-09-09T03:23:16;12.70;99.90
17797;DHT22;55596;53.554;9.916;2022-09-09T03:25:46;12.70;99.90
17797;DHT22;55596;53.554;9.916;2022-09-09T03:28:13;12.70;99.90
17797;DHT22;55596;53.554;9.916;2022-09-09T03:30:40;12.60;99.90
17797;DHT22;55596;53.554;9.916;2022-09-09T03:33:07;12.70;99.90
17797;DHT22;55596;53.554;9.916;2022-09-09T03:35:35;12.60;99.90
17797;DHT22;55596;53.554;9.916;2022-09-09T03:38:02;12.50;99.90
17797;DHT22;55596;53.554;9.916;2022-09-09T03:40:29;12.70;99.90
17797;DHT22;55596;53.554;9.916;2022-09-09T03:42:57;12.60;99.90
17797;DHT22;55596;53.554;9.916;2022-09-09T03:45:23;12.50;99.90
17797;DHT22;55596;53.554;9.916;2022-09-09T03:47:50;12.60;99.90
17797;DHT22;55596;53.554;9.916;2022-09-09T03:50:17;12.50;99.90
17797;DHT22;55596;53.554;9.916;2022-09-09T03:52:45;12.40;99.90
17797;DHT22;55596;53.554;9.916;2022-09-09T03:55:12;12.50;99.90
17797;DHT22;55596;53.554;9.916;2022-09-09T03:57:39;12.50;99.90
17797;DHT22;55596;53.554;9.916;2022-09-09T04:00:08;12.10;99.90
17797;DHT22;55596;53.554;9.916;2022-09-09T04:02:35;12.40;99.90
17797;DHT22;55596;53.554;9.916;2022-09-09T04:05:01;12.40;99.90
17797;DHT22;55596;53.554;9.916;2022-09-09T04:07:28;12.60;99.90
17797;DHT22;55596;53.554;9.916;2022-09-09T04:09:56;12.40;99.90
17797;DHT22;55596;53.554;9.916;2022-09-09T04:12:23;12.50;99.90
17797;DHT22;55596;53.554;9.916;2022-09-09T04:14:50;12.40;99.90
17797;DHT22;55596;53.554;9.916;2022-09-09T04:17:17;12.30;99.90
17797;DHT22;55596;53.554;9.916;2022-09-09T04:19:44;12.40;99.90
17797;DHT22;55596;53.554;9.916;2022-09-09T04:22:10;12.40;99.90
17797;DHT22;55596;53.554;9.916;2022-09-09T04:24:37;12.50;99.90
17797;DHT22;55596;53.554;9.916;2022-09-09T04:27:05;12.30;99.90
17797;DHT22;55596;53.554;9.916;2022-09-09T04:29:32;12.30;99.90
17797;DHT22;55596;53.554;9.916;2022-09-09T04:31:59;12.30;99.90
17797;DHT22;55596;53.554;9.916;2022-09-09T04:34:26;12.40;99.90
17797;DHT22;55596;53.554;9.916;2022-09-09T04:36:54;12.40;99.90
17797;DHT22;55596;53.554;9.916;2022-09-09T04:39:21;12.40;99.90
17797;DHT22;55596;53.554;9.916;2022-09-09T04:41:48;12.60;99.90
17797;DHT22;55596;53.554;9.916;2022-09-09T04:44:20;12.60;99.90
17797;DHT22;55596;53.554;9.916;2022-09-09T04:46:46;12.70;99.90
17797;DHT22;55596;53.554;9.916;2022-09-09T04:49:13;12.70;99.90
17797;DHT22;55596;53.554;9.916;2022-09-09T04:51:40;12.80;99.90
17797;DHT22;55596;53.554;9.916;2022-09-09T04:54:07;12.80;99.90
17797;DHT22;55596;53.554;9.916;2022-09-09T04:56:34;12.90;99.90
17797;DHT22;55596;53.554;9.916;2022-09-09T04:59:02;12.90;99.90
17797;DHT22;55596;53.554;9.916;2022-09-09T05:01:31;12.90;99.90
17797;DHT22;55596;53.554;9.916;2022-09-09T05:03:57;12.80;99.90
17797;DHT22;55596;53.554;9.916;2022-09-09T05:06:24;12.80;99.90
17797;DHT22;55596;53.554;9.916;2022-09-09T05:08:51;12.80;99.90
17797;DHT22;55596;53.554;9.916;2022-09-09T05:11:20;12.60;99.90
17797;DHT22;55596;53.554;9.916;2022-09-09T05:13:49;12.40;99.90
17797;DHT22;55596;53.554;9.916;2022-09-09T05:16:17;12.60;99.90
17797;DHT22;55596;53.554;9.916;2022-09-09T05:18:46;12.60;99.90
17797;DHT22;55596;53.554;9.916;2022-09-09T05:21:14;12.60;99.90
17797;DHT22;55596;53.554;9.916;2022-09-09T05:23:41;12.60;99.90
17797;DHT22;55596;53.554;9.916;2022-09-09T05:26:13;12.60;99.90
17797;DHT22;55596;53.554;9.916;2022-09-09T05:28:40;12.70;99.90
17797;DHT22;55596;53.554;9.916;2022-09-09T05:31:08;12.60;99.90
17797;DHT22;55596;53.554;9.916;2022-09-09T05:33:37;12.80;99.90
17797;DHT22;55596;53.554;9.916;2022-09-09T05:36:09;12.70;99.90
17797;DHT22;55596;53.554;9.916;2022-09-09T05:38:39;12.70;99.90
17797;DHT22;55596;53.554;9.916;2022-09-09T05:41:07;12.80;99.90
17797;DHT22;55596;53.554;9.916;2022-09-09T05:43:35;12.90;99.90
17797;DHT22;55596;53.554;9.916;2022-09-09T05:46:04;13.00;99.90
17797;DHT22;55596;53.554;9.916;2022-09-09T05:48:32;13.10;99.90
17797;DHT22;55596;53.554;9.916;2022-09-09T05:51:00;13.30;99.90
17797;DHT22;55596;53.554;9.916;2022-09-09T05:53:29;13.40;99.90
17797;DHT22;55596;53.554;9.916;2022-09-09T05:56:00;13.60;99.90
17797;DHT22;55596;53.554;9.916;2022-09-09T05:58:29;15.40;99.90
17797;DHT22;55596;53.554;9.916;2022-09-09T06:01:01;13.70;99.90
17797;DHT22;55596;53.554;9.916;2022-09-09T06:03:28;13.90;99.90
17797;DHT22;55596;53.554;9.916;2022-09-09T06:06:00;13.80;99.90
17797;DHT22;55596;53.554;9.916;2022-09-09T06:08:28;14.00;99.90
17797;DHT22;55596;53.554;9.916;2022-09-09T06:11:01;14.00;99.90
17797;DHT22;55596;53.554;9.916;2022-09-09T06:13:29;14.10;99.90
17797;DHT22;55596;53.554;9.916;2022-09-09T06:15:56;14.10;99.90
17797;DHT22;55596;53.554;9.916;2022-09-09T06:18:23;14.00;99.90
17797;DHT22;55596;53.554;9.916;2022-09-09T06:20:55;14.20;99.90
17797;DHT22;55596;53.554;9.916;2022-09-09T06:23:22;14.10;99.90
17797;DHT22;55596;53.554;9.916;2022-09-09T06:25:50;14.20;99.90
17797;DHT22;55596;53.554;9.916;2022-09-09T06:28:17;14.20;99.90
17797;DHT22;55596;53.554;9.916;2022-09-09T06:30:44;14.10;99.90
17797;DHT22;55596;53.554;9.916;2022-09-09T06:33:12;14.10;99.90
17797;DHT22;55596;53.554;9.916;2022-09-09T06:35:39;14.20;99.90
17797;DHT22;55596;53.554;9.916;2022-09-09T06:38:06;14.30;99.90
17797;DHT22;55596;53.554;9.916;2022-09-09T06:40:34;14.20;99.90
17797;DHT22;55596;53.554;9.916;2022-09-09T06:43:02;17.30;99.90
17797;DHT22;55596;53.554;9.916;2022-09-09T06:45:29;14.30;99.90
17797;DHT22;55596;53.554;9.916;2022-09-09T06:47:56;14.40;99.90
17797;DHT22;55596;53.554;9.916;2022-09-09T06:50:23;14.60;99.90
17797;DHT22;55596;53.554;9.916;2022-09-09T06:52:50;14.40;99.90
17797;DHT22;55596;53.554;9.916;2022-09-09T06:55:17;14.60;99.90
17797;DHT22;55596;53.554;9.916;2022-09-09T06:57:44;14.80;99.90
17797;DHT22;55596;53.554;9.916;2022-09-09T07:00:13;14.90;99.90
17797;DHT22;55596;53.554;9.916;2022-09-09T07:02:40;12.20;99.90
17797;DHT22;55596;53.554;9.916;2022-09-09T07:05:07;17.10;99.90
17797;DHT22;55596;53.554;9.916;2022-09-09T07:07:34;15.20;99.90
17797;DHT22;55596;53.554;9.916;2022-09-09T07:10:02;15.30;99.90
17797;DHT22;55596;53.554;9.916;2022-09-09T07:12:30;15.30;99.90
17797;DHT22;55596;53.554;9.916;2022-09-09T07:14:57;15.40;99.90
17797;DHT22;55596;53.554;9.916;2022-09-09T07:17:25;15.40;99.90
17797;DHT22;55596;53.554;9.916;2022-09-09T07:19:51;15.20;99.90
17797;DHT22;55596;53.554;9.916;2022-09-09T07:22:18;15.10;99.90
17797;DHT22;55596;53.554;9.916;2022-09-09T07:24:45;15.20;99.90
17797;DHT22;55596;53.554;9.916;2022-09-09T07:27:12;15.30;99.90
17797;DHT22;55596;53.554;9.916;2022-09-09T07:29:39;15.30;99.90
17797;DHT22;55596;53.554;9.916;2022-09-09T07:32:05;15.40;99.90
17797;DHT22;55596;53.554;9.916;2022-09-09T07:34:33;17.00;99.90
17797;DHT22;55596;53.554;9.916;2022-09-09T07:37:00;15.70;99.90
17797;DHT22;55596;53.554;9.916;2022-09-09T07:39:27;15.60;99.90
17797;DHT22;55596;53.554;9.916;2022-09-09T07:41:54;15.80;99.90
17797;DHT22;55596;53.554;9.916;2022-09-09T07:44:22;15.80;99.90
17797;DHT22;55596;53.554;9.916;2022-09-09T07:46:50;15.80;99.90
17797;DHT22;55596;53.554;9.916;2022-09-09T07:49:17;15.50;99.90
17797;DHT22;55596;53.554;9.916;2022-09-09T07:51:46;15.60;99.90
17797;DHT22;55596;53.554;9.916;2022-09-09T07:54:16;15.60;99.90
17797;DHT22;55596;53.554;9.916;2022-09-09T07:56:45;15.70;99.90
17797;DHT22;55596;53.554;9.916;2022-09-09T07:59:12;15.80;99.90
17797;DHT22;55596;53.554;9.916;2022-09-09T08:01:40;15.90;99.90
17797;DHT22;55596;53.554;9.916;2022-09-09T08:04:09;16.10;99.90
17797;DHT22;55596;53.554;9.916;2022-09-09T08:06:43;16.10;99.90
17797;DHT22;55596;53.554;9.916;2022-09-09T08:09:13;16.30;99.90
17797;DHT22;55596;53.554;9.916;2022-09-09T08:11:42;16.40;99.90
17797;DHT22;55596;53.554;9.916;2022-09-09T08:14:10;16.30;99.90
17797;DHT22;55596;53.554;9.916;2022-09-09T08:16:39;16.30;99.90
17797;DHT22;55596;53.554;9.916;2022-09-09T08:19:06;16.40;99.90
17797;DHT22;55596;53.554;9.916;2022-09-09T08:21:34;16.40;99.90
17797;DHT22;55596;53.554;9.916;2022-09-09T08:24:02;16.30;99.90
17797;DHT22;55596;53.554;9.916;2022-09-09T08:26:33;16.40;99.90
17797;DHT22;55596;53.554;9.916;2022-09-09T08:29:01;16.60;99.90
17797;DHT22;55596;53.554;9.916;2022-09-09T08:31:30;16.80;99.90
17797;DHT22;55596;53.554;9.916;2022-09-09T08:33:58;16.90;99.90
17797;DHT22;55596;53.554;9.916;2022-09-09T08:36:27;17.10;99.90
17797;DHT22;55596;53.554;9.916;2022-09-09T08:38:55;17.20;99.90
17797;DHT22;55596;53.554;9.916;2022-09-09T08:41:52;17.00;99.90
17797;DHT22;55596;53.554;9.916;2022-09-09T08:44:31;17.20;99.90
17797;DHT22;55596;53.554;9.916;2022-09-09T08:47:02;17.10;99.90
17797;DHT22;55596;53.554;9.916;2022-09-09T08:49:43;17.10;99.90
17797;DHT22;55596;53.554;9.916;2022-09-09T08:52:16;17.20;99.90
17797;DHT22;55596;53.554;9.916;2022-09-09T08:54:44;17.40;99.90
17797;DHT22;55596;53.554;9.916;2022-09-09T08:57:17;17.50;99.90
17797;DHT22;55596;53.554;9.916;2022-09-09T08:59:46;17.60;99.90
17797;DHT22;55596;53.554;9.916;2022-09-09T09:02:16;17.50;99.90
17797;DHT22;55596;53.554;9.916;2022-09-09T09:04:58;17.70;99.90
17797;DHT22;55596;53.554;9.916;2022-09-09T09:07:35;18.10;99.90
17797;DHT22;55596;53.554;9.916;2022-09-09T09:10:10;18.40;99.90
17797;DHT22;55596;53.554;9.916;2022-09-09T09:12:43;19.10;99.90
17797;DHT22;55596;53.554;9.916;2022-09-09T09:15:18;19.70;99.90
17797;DHT22;55596;53.554;9.916;2022-09-09T09:17:45;19.80;99.90
17797;DHT22;55596;53.554;9.916;2022-09-09T09:20:13;20.20;99.90
17797;DHT22;55596;53.554;9.916;2022-09-09T09:22:47;20.40;99.90
17797;DHT22;55596;53.554;9.916;2022-09-09T09:25:17;20.50;99.90
17797;DHT22;55596;53.554;9.916;2022-09-09T09:27:52;20.70;99.90
17797;DHT22;55596;53.554;9.916;2022-09-09T09:30:23;20.80;99.90
17797;DHT22;55596;53.554;9.916;2022-09-09T09:32:54;20.70;99.90
17797;DHT22;55596;53.554;9.916;2022-09-09T09:35:21;20.50;99.90
17797;DHT22;55596;53.554;9.916;2022-09-09T09:37:49;20.30;99.90
17797;DHT22;55596;53.554;9.916;2022-09-09T09:40:18;20.50;99.90
17797;DHT22;55596;53.554;9.916;2022-09-09T09:42:51;20.60;99.90
17797;DHT22;55596;53.554;9.916;2022-09-09T09:45:26;20.90;99.90
17797;DHT22;55596;53.554;9.916;2022-09-09T09:47:59;21.30;99.90
17797;DHT22;55596;53.554;9.916;2022-09-09T09:50:28;21.70;99.90
17797;DHT22;55596;53.554;9.916;2022-09-09T09:52:56;21.60;99.90
17797;DHT22;55596;53.554;9.916;2022-09-09T09:55:24;21.30;99.90
17797;DHT22;55596;53.554;9.916;2022-09-09T09:57:54;21.40;99.90
17797;DHT22;55596;53.554;9.916;2022-09-09T10:00:26;21.20;99.90
17797;DHT22;55596;53.554;9.916;2022-09-09T10:02:53;21.50;99.90
17797;DHT22;55596;53.554;9.916;2022-09-09T10:05:24;22.20;99.90
17797;DHT22;55596;53.554;9.916;2022-09-09T10:08:02;22.00;99.90
17797;DHT22;55596;53.554;9.916;2022-09-09T10:10:42;22.10;99.90
17797;DHT22;55596;53.554;9.916;2022-09-09T10:13:18;22.00;99.90
17797;DHT22;55596;53.554;9.916;2022-09-09T10:15:56;21.80;99.90
17797;DHT22;55596;53.554;9.916;2022-09-09T10:18:39;21.90;99.90
17797;DHT22;55596;53.554;9.916;2022-09-09T10:21:19;21.80;99.90
17797;DHT22;55596;53.554;9.916;2022-09-09T10:24:00;21.80;99.90
17797;DHT22;55596;53.554;9.916;2022-09-09T10:26:38;21.50;99.90
17797;DHT22;55596;53.554;9.916;2022-09-09T10:29:31;21.30;99.90
17797;DHT22;55596;53.554;9.916;2022-09-09T10:32:23;21.20;99.90
17797;DHT22;55596;53.554;9.916;2022-09-09T10:34:56;21.00;99.90
17797;DHT22;55596;53.554;9.916;2022-09-09T10:37:36;20.90;99.90
17797;DHT22;55596;53.554;9.916;2022-09-09T10:40:26;21.10;99.90
17797;DHT22;55596;53.554;9.916;2022-09-09T10:43:01;21.10;99.90
17797;DHT22;55596;53.554;9.916;2022-09-09T10:45:38;21.10;99.90
17797;DHT22;55596;53.554;9.916;2022-09-09T10:48:20;21.00;99.90
17797;DHT22;55596;53.554;9.916;2022-09-09T10:50:56;21.20;99.90
17797;DHT22;55596;53.554;9.916;2022-09-09T10:53:35;21.40;99.90
17797;DHT22;55596;53.554;9.916;2022-09-09T10:56:06;21.50;99.90
17797;DHT22;55596;53.554;9.916;2022-09-09T10:58:42;21.60;99.90
17797;DHT22;55596;53.554;9.916;2022-09-09T11:01:15;21.80;99.90
17797;DHT22;55596;53.554;9.916;2022-09-09T11:03:45;22.30;99.90
17797;DHT22;55596;53.554;9.916;2022-09-09T11:06:16;22.80;99.90
17797;DHT22;55596;53.554;9.916;2022-09-09T11:08:45;23.30;99.90
17797;DHT22;55596;53.554;9.916;2022-09-09T11:11:16;22.90;99.90
17797;DHT22;55596;53.554;9.916;2022-09-09T11:13:48;22.90;99.90
17797;DHT22;55596;53.554;9.916;2022-09-09T11:16:25;22.60;99.90
17797;DHT22;55596;53.554;9.916;2022-09-09T11:19:00;22.60;99.90
17797;DHT22;55596;53.554;9.916;2022-09-09T11:21:32;22.40;99.90
17797;DHT22;55596;53.554;9.916;2022-09-09T11:24:03;23.30;99.90
17797;DHT22;55596;53.554;9.916;2022-09-09T11:26:37;22.80;99.90
17797;DHT22;55596;53.554;9.916;2022-09-09T11:29:22;23.00;99.90
17797;DHT22;55596;53.554;9.916;2022-09-09T11:32:00;23.50;99.90
17797;DHT22;55596;53.554;9.916;2022-09-09T11:34:39;24.20;99.90
17797;DHT22;55596;53.554;9.916;2022-09-09T11:37:30;24.80;99.90
17797;DHT22;55596;53.554;9.916;2022-09-09T11:40:09;24.70;99.90
17797;DHT22;55596;53.554;9.916;2022-09-09T11:42:40;24.50;99.90
17797;DHT22;55596;53.554;9.916;2022-09-09T11:45:21;25.40;99.90
17797;DHT22;55596;53.554;9.916;2022-09-09T11:47:54;25.60;99.90
17797;DHT22;55596;53.554;9.916;2022-09-09T11:50:30;25.70;99.90
17797;DHT22;55596;53.554;9.916;2022-09-09T11:53:16;25.60;99.90
17797;DHT22;55596;53.554;9.916;2022-09-09T11:55:45;25.90;99.90
17797;DHT22;55596;53.554;9.916;2022-09-09T11:58:16;25.60;99.90
17797;DHT22;55596;53.554;9.916;2022-09-09T12:00:45;25.70;99.90
17797;DHT22;55596;53.554;9.916;2022-09-09T12:03:40;25.60;99.90
17797;DHT22;55596;53.554;9.916;2022-09-09T12:06:14;25.20;99.90
17797;DHT22;55596;53.554;9.916;2022-09-09T12:08:44;24.90;99.90
17797;DHT22;55596;53.554;9.916;2022-09-09T12:11:12;24.60;99.90
17797;DHT22;55596;53.554;9.916;2022-09-09T12:13:52;24.50;99.90
17797;DHT22;55596;53.554;9.916;2022-09-09T12:16:29;24.30;99.90
17797;DHT22;55596;53.554;9.916;2022-09-09T12:19:06;23.90;99.90
17797;DHT22;55596;53.554;9.916;2022-09-09T12:21:38;23.80;99.90
17797;DHT22;55596;53.554;9.916;2022-09-09T12:24:08;23.50;99.90
17797;DHT22;55596;53.554;9.916;2022-09-09T12:26:39;23.10;99.90
17797;DHT22;55596;53.554;9.916;2022-09-09T12:29:15;23.00;99.90
17797;DHT22;55596;53.554;9.916;2022-09-09T12:31:47;22.70;99.90
17797;DHT22;55596;53.554;9.916;2022-09-09T12:34:30;22.40;99.90
17797;DHT22;55596;53.554;9.916;2022-09-09T12:37:03;22.30;99.90
17797;DHT22;55596;53.554;9.916;2022-09-09T12:39:34;22.00;99.90
17797;DHT22;55596;53.554;9.916;2022-09-09T12:42:02;23.80;99.90
17797;DHT22;55596;53.554;9.916;2022-09-09T12:44:29;22.20;99.90
17797;DHT22;55596;53.554;9.916;2022-09-09T12:47:01;22.70;99.90
17797;DHT22;55596;53.554;9.916;2022-09-09T12:49:34;23.40;99.90
17797;DHT22;55596;53.554;9.916;2022-09-09T12:52:07;23.50;99.90
17797;DHT22;55596;53.554;9.916;2022-09-09T12:54:36;23.50;99.90
17797;DHT22;55596;53.554;9.916;2022-09-09T12:57:04;23.20;99.90
17797;DHT22;55596;53.554;9.916;2022-09-09T12:59:37;22.90;99.90
17797;DHT22;55596;53.554;9.916;2022-09-09T13:02:21;22.50;99.90
17797;DHT22;55596;53.554;9.916;2022-09-09T13:04:50;22.20;99.90
17797;DHT22;55596;53.554;9.916;2022-09-09T13:07:18;22.80;99.90
17797;DHT22;55596;53.554;9.916;2022-09-09T13:09:46;21.20;99.90
17797;DHT22;55596;53.554;9.916;2022-09-09T13:12:16;20.90;99.90
17797;DHT22;55596;53.554;9.916;2022-09-09T13:14:45;20.10;99.90
17797;DHT22;55596;53.554;9.916;2022-09-09T13:17:19;19.70;99.90
17797;DHT22;55596;53.554;9.916;2022-09-09T13:19:47;20.10;99.90
17797;DHT22;55596;53.554;9.916;2022-09-09T13:22:21;19.60;99.90
17797;DHT22;55596;53.554;9.916;2022-09-09T13:24:59;19.20;99.90
17797;DHT22;55596;53.554;9.916;2022-09-09T13:27:30;18.80;99.90
17797;DHT22;55596;53.554;9.916;2022-09-09T13:29:57;18.20;99.90
17797;DHT22;55596;53.554;9.916;2022-09-09T13:32:28;17.50;99.90
17797;DHT22;55596;53.554;9.916;2022-09-09T13:34:56;17.00;99.90
17797;DHT22;55596;53.554;9.916;2022-09-09T13:37:28;18.80;99.90
17797;DHT22;55596;53.554;9.916;2022-09-09T13:39:57;16.40;99.90
17797;DHT22;55596;53.554;9.916;2022-09-09T13:42:26;16.90;99.90
17797;DHT22;55596;53.554;9.916;2022-09-09T13:44:55;16.20;99.90
17797;DHT22;55596;53.554;9.916;2022-09-09T13:47:28;16.00;99.90
17797;DHT22;55596;53.554;9.916;2022-09-09T13:49:56;16.10;99.90
17797;DHT22;55596;53.554;9.916;2022-09-09T13:52:27;16.00;99.90
17797;DHT22;55596;53.554;9.916;2022-09-09T13:54:56;17.10;99.90
17797;DHT22;55596;53.554;9.916;2022-09-09T13:57:25;16.00;99.90
17797;DHT22;55596;53.554;9.916;2022-09-09T13:59:53;16.10;99.90
17797;DHT22;55596;53.554;9.916;2022-09-09T14:02:20;16.10;99.90
17797;DHT22;55596;53.554;9.916;2022-09-09T14:04:48;16.10;99.90
17797;DHT22;55596;53.554;9.916;2022-09-09T14:07:17;16.10;99.90
17797;DHT22;55596;53.554;9.916;2022-09-09T14:09:46;16.10;99.90
17797;DHT22;55596;53.554;9.916;2022-09-09T14:12:16;16.10;99.90
17797;DHT22;55596;53.554;9.916;2022-09-09T14:14:43;16.20;99.90
17797;DHT22;55596;53.554;9.916;2022-09-09T14:17:10;16.10;99.90
17797;DHT22;55596;53.554;9.916;2022-09-09T14:19:37;16.20;99.90
17797;DHT22;55596;53.554;9.916;2022-09-09T14:22:04;16.00;99.90
17797;DHT22;55596;53.554;9.916;2022-09-09T14:24:31;16.30;99.90
17797;DHT22;55596;53.554;9.916;2022-09-09T14:26:59;16.20;99.90
17797;DHT22;55596;53.554;9.916;2022-09-09T14:29:26;16.30;99.90
17797;DHT22;55596;53.554;9.916;2022-09-09T14:31:53;16.30;99.90
17797;DHT22;55596;53.554;9.916;2022-09-09T14:34:20;16.30;99.90
17797;DHT22;55596;53.554;9.916;2022-09-09T14:36:47;16.30;99.90
17797;DHT22;55596;53.554;9.916;2022-09-09T14:39:13;16.30;99.90
17797;DHT22;55596;53.554;9.916;2022-09-09T14:41:40;16.30;99.90
17797;DHT22;55596;53.554;9.916;2022-09-09T14:44:08;17.00;99.90
17797;DHT22;55596;53.554;9.916;2022-09-09T14:46:35;16.30;99.90
17797;DHT22;55596;53.554;9.916;2022-09-09T14:49:02;16.10;99.90
17797;DHT22;55596;53.554;9.916;2022-09-09T14:51:30;16.10;99.90
17797;DHT22;55596;53.554;9.916;2022-09-09T14:53:58;16.20;99.90
17797;DHT22;55596;53.554;9.916;2022-09-09T14:56:27;16.20;99.90
17797;DHT22;55596;53.554;9.916;2022-09-09T14:58:56;16.20;99.90
17797;DHT22;55596;53.554;9.916;2022-09-09T15:01:25;16.30;99.90
17797;DHT22;55596;53.554;9.916;2022-09-09T15:03:54;16.30;99.90
17797;DHT22;55596;53.554;9.916;2022-09-09T15:06:22;16.30;99.90
17797;DHT22;55596;53.554;9.916;2022-09-09T15:08:51;16.30;99.90
17797;DHT22;55596;53.554;9.916;2022-09-09T15:11:19;16.20;99.90
17797;DHT22;55596;53.554;9.916;2022-09-09T15:13:46;16.30;99.90
17797;DHT22;55596;53.554;9.916;2022-09-09T15:16:15;16.50;99.90
17797;DHT22;55596;53.554;9.916;2022-09-09T15:18:50;16.40;99.90
17797;DHT22;55596;53.554;9.916;2022-09-09T15:21:19;16.50;99.90
17797;DHT22;55596;53.554;9.916;2022-09-09T15:23:47;16.40;99.90
17797;DHT22;55596;53.554;9.916;2022-09-09T15:26:15;17.60;99.90
17797;DHT22;55596;53.554;9.916;2022-09-09T15:28:43;16.50;99.90
17797;DHT22;55596;53.554;9.916;2022-09-09T15:31:12;16.50;99.90
17797;DHT22;55596;53.554;9.916;2022-09-09T15:33:41;16.70;99.90
17797;DHT22;55596;53.554;9.916;2022-09-09T15:36:17;16.60;99.90
17797;DHT22;55596;53.554;9.916;2022-09-09T15:38:44;16.60;99.90
17797;DHT22;55596;53.554;9.916;2022-09-09T15:41:12;16.60;99.90
17797;DHT22;55596;53.554;9.916;2022-09-09T15:43:42;16.30;99.90
17797;DHT22;55596;53.554;9.916;2022-09-09T15:46:22;16.80;99.90
17797;DHT22;55596;53.554;9.916;2022-09-09T15:48:52;16.90;99.90
17797;DHT22;55596;53.554;9.916;2022-09-09T15:51:21;17.10;99.90
17797;DHT22;55596;53.554;9.916;2022-09-09T15:53:49;17.10;99.90
17797;DHT22;55596;53.554;9.916;2022-09-09T15:56:19;17.40;99.90
17797;DHT22;55596;53.554;9.916;2022-09-09T15:58:46;17.40;99.90